Time;durP1;ratioP1;P1;durP2;ratioP2;P2;SDS_P1;SDS_P2;PMS_P1;PMS_P2;Temp;Humidity;BMP_temperature;BMP_pressure;BME280_temperature;BME280_humidity;BME280_pressure;Samples;Min_cycle;Max_cycle;Signal;HPM_P1;HPM_P2
2021/05/11 00:00:09;;;;;;;3.12;1.42;;;;;;;13.20;49.21;100872.20;1780575;80;20891;-67
2021/05/11 00:02:37;;;;;;;3.95;1.30;;;;;;;13.18;48.61;100866.19;1780675;80;20939;-67
2021/05/11 00:05:06;;;;;;;2.67;0.82;;;;;;;13.18;48.48;100860.91;1780636;80;21148;-67
2021/05/11 00:07:35;;;;;;;5.55;1.20;;;;;;;13.18;48.23;100864.86;1780663;80;21003;-68
2021/05/11 00:10:06;;;;;;;4.83;0.93;;;;;;;13.18;47.94;100860.91;1780639;80;20975;-68
2021/05/11 00:12:36;;;;;;;1.40;1.20;;;;;;;13.17;47.73;100850.86;1780639;80;20939;-67
2021/05/11 00:15:08;;;;;;;2.30;0.98;;;;;;;13.18;47.39;100852.53;1780655;80;20935;-67
2021/05/11 00:17:36;;;;;;;2.20;1.10;;;;;;;13.17;46.69;100842.96;1780762;80;22361;-68
2021/05/11 00:20:06;;;;;;;1.20;1.00;;;;;;;13.20;46.71;100844.55;1780621;80;20998;-67
2021/05/11 00:22:34;;;;;;;2.35;1.15;;;;;;;13.20;45.98;100845.86;1780651;80;20959;-68
2021/05/11 00:25:03;;;;;;;1.98;1.12;;;;;;;13.21;45.45;100837.03;1780616;80;21018;-67
2021/05/11 00:27:32;;;;;;;4.87;1.35;;;;;;;13.21;45.38;100831.28;1780655;80;20989;-68
2021/05/11 00:30:00;;;;;;;1.22;1.12;;;;;;;13.23;44.83;100825.92;1780593;80;21381;-68
2021/05/11 00:32:28;;;;;;;3.40;0.90;;;;;;;13.24;44.41;100824.48;1775190;80;20948;-66
2021/05/11 00:34:56;;;;;;;2.70;1.55;;;;;;;13.26;44.51;100818.63;1774852;80;20939;-67
2021/05/11 00:37:25;;;;;;;5.65;1.27;;;;;;;13.29;44.63;100822.05;1774901;80;21038;-67
2021/05/11 00:39:53;;;;;;;1.67;1.05;;;;;;;13.31;44.17;100827.57;1774906;80;21019;-67
2021/05/11 00:42:22;;;;;;;2.87;1.10;;;;;;;13.32;43.96;100824.45;1774827;80;21208;-67
2021/05/11 00:44:50;;;;;;;1.87;1.17;;;;;;;13.36;43.95;100828.57;1774824;80;21006;-67
2021/05/11 00:47:18;;;;;;;3.10;1.95;;;;;;;13.37;44.22;100829.79;1774842;80;20947;-68
2021/05/11 00:49:48;;;;;;;1.95;1.55;;;;;;;13.38;44.06;100831.95;1774816;80;20936;-66
2021/05/11 00:52:17;;;;;;;2.20;0.93;;;;;;;13.39;44.45;100833.65;1775024;80;20947;-66
2021/05/11 00:54:47;;;;;;;2.05;1.57;;;;;;;13.40;44.28;100834.00;1775013;80;21209;-66
2021/05/11 00:57:15;;;;;;;2.00;1.20;;;;;;;13.40;44.49;100832.69;1774918;80;20963;-66
2021/05/11 00:59:43;;;;;;;2.67;0.80;;;;;;;13.40;44.66;100828.25;1775037;80;20955;-67
2021/05/11 01:02:12;;;;;;;2.70;0.90;;;;;;;13.40;44.94;100819.03;1774946;80;21014;-66
2021/05/11 01:04:40;;;;;;;2.75;1.05;;;;;;;13.42;44.95;100821.57;1774975;80;20927;-67
2021/05/11 01:07:08;;;;;;;2.02;1.02;;;;;;;13.41;45.17;100823.85;1775039;80;21196;-67
2021/05/11 01:09:38;;;;;;;4.42;1.05;;;;;;;13.40;45.37;100816.40;1774925;80;20967;-66
2021/05/11 01:12:07;;;;;;;2.58;1.52;;;;;;;13.38;45.60;100824.88;1774962;80;21017;-67
2021/05/11 01:14:35;;;;;;;4.47;1.00;;;;;;;13.37;45.62;100817.94;1774990;80;20952;-67
2021/05/11 01:17:14;;;;;;;3.75;1.20;;;;;;;13.36;45.87;100809.68;1775037;80;20990;-67
2021/05/11 01:19:52;;;;;;;5.83;1.25;;;;;;;13.36;46.10;100814.08;1774842;80;21445;-67
2021/05/11 01:25:01;;;;;;;5.12;1.00;;;;;;;13.37;46.49;100809.20;1775046;80;21612;-67
2021/05/11 01:44:08;;;;;;;4.28;1.20;;;;;;;13.30;47.04;100821.11;1818065;77;20986;-67
2021/05/11 01:46:59;;;;;;;4.83;1.10;;;;;;;13.29;47.03;100820.24;1816683;79;21053;-67
2021/05/11 01:49:22;;;;;;;3.08;1.60;;;;;;;13.27;46.81;100818.16;1813878;77;21029;-68
2021/05/11 01:51:55;;;;;;;1.60;1.40;;;;;;;13.25;47.15;100816.09;1816548;79;21442;-68
2021/05/11 02:24:31;;;;;;;3.77;0.88;;;;;;;12.90;48.08;100804.86;1817963;77;20974;-65
2021/05/11 02:26:59;;;;;;;2.58;1.40;;;;;;;12.87;48.26;100805.05;1817935;77;21029;-66
2021/05/11 02:29:27;;;;;;;2.35;0.98;;;;;;;12.86;48.14;100801.58;1817971;78;20910;-67
2021/05/11 02:31:56;;;;;;;5.05;1.47;;;;;;;12.84;48.15;100796.05;1817844;77;21801;-66
2021/05/11 02:34:24;;;;;;;1.20;1.10;;;;;;;12.84;48.30;100788.15;1817911;79;20935;-67
2021/05/11 02:36:53;;;;;;;3.30;1.30;;;;;;;12.84;48.21;100790.78;1818008;79;21097;-66
2021/05/11 02:39:22;;;;;;;3.98;0.93;;;;;;;12.83;48.25;100788.63;1818027;79;20982;-67
2021/05/11 02:41:50;;;;;;;1.72;1.22;;;;;;;12.82;48.16;100788.24;1817978;79;20986;-67
2021/05/11 02:44:21;;;;;;;3.20;1.25;;;;;;;12.82;48.48;100787.41;1817474;79;21183;-67
2021/05/11 02:46:50;;;;;;;3.77;1.30;;;;;;;12.83;48.33;100786.48;1817413;79;21000;-68
2021/05/11 02:49:22;;;;;;;3.20;1.22;;;;;;;12.82;48.25;100788.24;1817345;79;20982;-68
2021/05/11 02:51:49;;;;;;;3.80;1.50;;;;;;;12.82;48.37;100786.09;1817386;78;21483;-67
2021/05/11 02:54:18;;;;;;;2.42;1.20;;;;;;;12.81;48.62;100778.67;1817419;79;20982;-68
2021/05/11 02:56:47;;;;;;;1.82;1.00;;;;;;;12.79;48.85;100771.36;1817304;77;21242;-67
2021/05/11 02:59:16;;;;;;;3.58;1.70;;;;;;;12.80;49.14;100772.19;1817320;79;20950;-68
2021/05/11 03:01:44;;;;;;;2.37;1.50;;;;;;;12.77;48.72;100762.72;1817369;79;20916;-68
2021/05/11 03:04:14;;;;;;;1.90;1.27;;;;;;;12.77;48.90;100757.45;1817237;79;20934;-69
2021/05/11 03:06:42;;;;;;;3.20;1.35;;;;;;;12.78;49.08;100750.39;1817347;79;20939;-67
2021/05/11 03:09:12;;;;;;;2.92;1.40;;;;;;;12.77;49.22;100748.72;1817321;78;21189;-68
2021/05/11 03:11:40;;;;;;;5.85;1.37;;;;;;;12.77;49.38;100745.61;1817259;78;21058;-67
2021/05/11 03:14:09;;;;;;;3.22;0.95;;;;;;;12.80;49.34;100744.55;1817363;78;21045;-67
2021/05/11 03:16:37;;;;;;;4.47;1.32;;;;;;;12.81;49.41;100744.46;1817303;79;20934;-67
2021/05/11 03:19:06;;;;;;;2.05;1.05;;;;;;;12.84;49.57;100738.14;1817362;79;20918;-69
2021/05/11 03:21:35;;;;;;;4.25;1.72;;;;;;;12.84;49.70;100732.88;1817330;79;22361;-68
2021/05/11 03:24:09;;;;;;;4.58;1.55;;;;;;;12.85;49.68;100730.64;1816719;79;20899;-67
2021/05/11 03:26:37;;;;;;;2.02;1.20;;;;;;;12.85;49.77;100720.95;1817311;77;21068;-68
2021/05/11 03:29:05;;;;;;;1.70;1.20;;;;;;;12.87;49.99;100718.19;1817314;77;21357;-66
2021/05/11 03:31:34;;;;;;;1.40;1.00;;;;;;;12.88;49.98;100713.31;1817189;78;20918;-68
2021/05/11 03:34:03;;;;;;;2.15;1.15;;;;;;;12.89;49.99;100715.45;1817431;78;21499;-68
2021/05/11 03:36:32;;;;;;;1.77;1.22;;;;;;;12.90;49.64;100727.20;1817293;79;20978;-68
2021/05/11 03:39:04;;;;;;;5.08;1.45;;;;;;;12.92;49.59;100729.27;1817301;79;20986;-68
2021/05/11 03:41:36;;;;;;;2.05;1.72;;;;;;;12.95;49.64;100722.94;1817324;79;20922;-69
2021/05/11 03:44:22;;;;;;;1.50;1.27;;;;;;;12.97;49.97;100717.10;1816871;79;20938;-68
2021/05/11 03:46:35;;;;;;;4.35;1.15;;;;;;;12.99;50.04;100708.15;1811516;77;22060;-68
2021/05/11 03:49:16;;;;;;;1.90;1.75;;;;;;;13.07;50.04;100715.50;1846013;76;22651;-69
2021/05/11 03:51:52;;;;;;;2.22;0.85;;;;;;;13.10;49.86;100719.27;1847878;76;22630;-68
2021/05/11 03:54:28;;;;;;;5.33;1.25;;;;;;;13.13;50.00;100719.03;1847906;76;22647;-67
2021/05/11 03:57:05;;;;;;;2.35;1.30;;;;;;;13.18;49.79;100743.73;1777203;79;22712;-68
2021/05/11 03:59:41;;;;;;;3.72;1.75;;;;;;;13.25;49.75;100759.47;1884810;76;22570;-68
2021/05/11 04:02:16;;;;;;;1.98;1.52;;;;;;;13.32;49.56;100748.94;1847856;76;22730;-67
2021/05/11 04:04:52;;;;;;;1.77;1.05;;;;;;;13.40;49.45;100750.54;1847904;76;23242;-69
2021/05/11 04:07:28;;;;;;;3.67;1.57;;;;;;;13.52;49.48;100759.85;1816077;79;22644;-69
2021/05/11 04:10:39;;;;;;;5.33;1.85;;;;;;;13.62;49.21;100764.38;1874481;75;22652;-68
2021/05/11 04:13:34;;;;;;;4.90;1.50;;;;;;;13.73;48.99;100760.98;1832120;76;27741;-67
2021/05/11 04:16:15;;;;;;;3.25;1.20;;;;;;;13.87;49.06;100766.58;1847849;76;22663;-68
2021/05/11 04:18:47;;;;;;;9.28;1.60;;;;;;;14.00;48.73;100760.80;1890114;76;22621;-68
2021/05/11 04:21:23;;;;;;;2.37;1.40;;;;;;;14.08;49.06;100753.18;1847773;76;22726;-69
2021/05/11 04:23:59;;;;;;;2.87;0.90;;;;;;;14.22;48.81;100750.02;1820094;77;22685;-68
2021/05/11 04:26:34;;;;;;;4.03;2.00;;;;;;;14.39;48.17;100740.88;1832167;76;30635;-66
2021/05/11 04:29:10;;;;;;;5.97;1.57;;;;;;;14.71;47.95;100739.80;1890089;75;22680;-68
2021/05/11 04:31:47;;;;;;;2.83;1.60;;;;;;;15.05;47.14;100742.05;1836563;77;38692;-68
2021/05/11 04:34:22;;;;;;;3.37;1.30;;;;;;;15.42;46.65;100725.13;1816070;78;22561;-68
2021/05/11 04:36:58;;;;;;;8.80;1.32;;;;;;;15.81;45.83;100734.83;1890123;75;22656;-68
2021/05/11 04:39:34;;;;;;;5.33;1.35;;;;;;;16.04;44.95;100715.31;1847811;76;22686;-70
2021/05/11 04:42:10;;;;;;;4.37;1.15;;;;;;;16.15;44.42;100715.76;1890066;76;22558;-69
2021/05/11 04:48:55;;;;;;;9.05;1.47;;;;;;;16.14;44.48;100695.54;1852266;77;22712;-70
2021/05/11 04:51:37;;;;;;;1.92;0.95;;;;;;;16.25;43.77;100690.69;1890139;76;22641;-69
2021/05/11 04:54:13;;;;;;;3.67;1.40;;;;;;;16.41;44.03;100680.98;1847801;76;22709;-70
2021/05/11 04:56:49;;;;;;;2.37;1.40;;;;;;;16.61;43.52;100677.98;1847848;76;23223;-69
2021/05/11 04:59:25;;;;;;;5.57;1.57;;;;;;;16.70;43.02;100684.69;1761636;79;27905;-69
2021/05/11 05:02:10;;;;;;;2.87;1.27;;;;;;;17.03;42.39;100692.09;1852303;77;22772;-69
2021/05/11 05:04:47;;;;;;;3.75;1.32;;;;;;;17.39;41.96;100686.71;1847838;76;22631;-72
2021/05/11 05:07:23;;;;;;;1.82;0.98;;;;;;;17.89;41.73;100686.36;1847778;76;22648;-72
2021/05/11 05:10:00;;;;;;;5.03;1.85;;;;;;;18.34;40.71;100688.00;1868499;75;27638;-72
2021/05/11 05:12:45;;;;;;;4.08;1.70;;;;;;;18.74;40.13;100695.40;1846025;76;22726;-73
2021/05/11 05:15:21;;;;;;;5.65;1.50;;;;;;;18.85;40.05;100683.30;1890107;75;22542;-72
2021/05/11 05:18:03;;;;;;;4.17;1.37;;;;;;;18.78;40.74;100679.55;1845984;76;23246;-73
2021/05/11 05:20:39;;;;;;;6.40;1.87;;;;;;;18.60;40.42;100678.92;1832077;76;27686;-73
2021/05/11 05:23:16;;;;;;;4.12;1.00;;;;;;;18.56;40.79;100668.73;1890113;76;23152;-73
2021/05/11 05:25:59;;;;;;;6.00;1.50;;;;;;;18.48;41.21;100672.11;1890084;75;22648;-73
2021/05/11 05:28:32;;;;;;;3.37;1.30;;;;;;;18.26;41.10;100653.34;1777175;79;22751;-72
2021/05/11 05:31:13;;;;;;;1.57;0.93;;;;;;;17.92;42.03;100645.81;1775440;79;22684;-72
2021/05/11 05:33:50;;;;;;;3.47;1.45;;;;;;;17.78;42.93;100654.96;1800484;79;27887;-73
2021/05/11 05:36:27;;;;;;;3.70;1.80;;;;;;;17.74;43.16;100660.68;1847809;76;23214;-72
2021/05/11 05:39:04;;;;;;;6.75;1.37;;;;;;;17.70;43.17;100674.72;1846116;77;22721;-73
2021/05/11 05:41:46;;;;;;;1.92;1.42;;;;;;;17.70;43.43;100681.36;1890047;76;22633;-71
2021/05/11 05:44:23;;;;;;;2.72;1.10;;;;;;;17.72;43.52;100679.88;1890102;76;23106;-71
2021/05/11 05:47:00;;;;;;;3.83;1.62;;;;;;;17.73;43.60;100666.48;1847863;76;22718;-73
2021/05/11 05:49:47;;;;;;;3.55;1.20;;;;;;;18.02;43.59;100653.77;1852344;77;22691;-72
2021/05/11 05:52:33;;;;;;;5.37;1.05;;;;;;;18.49;42.72;100647.72;1852364;77;23229;-72
2021/05/11 05:55:02;;;;;;;7.15;1.62;;;;;;;19.09;41.60;100632.80;1847888;75;22651;-72
2021/05/11 05:57:44;;;;;;;5.55;1.27;;;;;;;19.73;40.83;100633.22;1846036;76;23709;-70
2021/05/11 06:00:21;;;;;;;3.12;1.45;;;;;;;20.28;39.72;100645.53;1847658;76;22643;-69
2021/05/11 06:03:06;;;;;;;2.87;1.10;;;;;;;20.76;37.90;100646.03;1847869;76;23234;-69
2021/05/11 06:05:46;;;;;;;3.42;1.57;;;;;;;21.07;37.53;100653.03;1776964;79;22791;-68
2021/05/11 06:08:25;;;;;;;5.40;1.32;;;;;;;21.24;36.79;100643.28;1852359;77;22641;-68
2021/05/11 06:14:05;;;;;;;1.20;1.00;;;;;;;21.94;36.52;100645.15;1847869;76;23261;-69
2021/05/11 06:19:33;;;;;;;4.70;1.20;;;;;;;22.52;34.54;100640.65;1846020;75;22733;-70
2021/05/11 06:22:09;;;;;;;5.70;1.80;;;;;;;22.76;34.89;100641.07;1874042;76;27447;-69
2021/05/11 06:24:50;;;;;;;6.15;1.40;;;;;;;23.10;34.27;100645.36;1890084;76;22639;-67
2021/05/11 06:27:26;;;;;;;3.62;1.10;;;;;;;23.20;34.10;100631.77;1816111;79;22571;-64
2021/05/11 06:30:01;;;;;;;3.95;1.67;;;;;;;23.00;33.91;100624.66;1777179;79;23287;-69
2021/05/11 06:32:37;;;;;;;2.62;1.50;;;;;;;22.55;34.68;100631.45;1777185;79;23276;-66
2021/05/11 06:35:13;;;;;;;4.47;1.50;;;;;;;21.94;35.80;100628.27;1797999;79;27728;-67
2021/05/11 06:37:58;;;;;;;3.12;1.82;;;;;;;21.65;36.72;100650.91;1846002;76;22651;-67
2021/05/11 06:40:41;;;;;;;8.38;1.90;;;;;;;21.75;37.11;100645.95;1845952;75;22694;-67
2021/05/11 06:43:25;;;;;;;10.70;2.87;;;;;;;21.64;37.31;100646.59;1890084;75;22573;-66
2021/05/11 06:46:45;;;;;;;7.22;3.17;;;;;;;21.58;37.30;100647.74;1847806;76;22729;-68
2021/05/11 06:54:19;;;;;;;6.00;1.57;;;;;;;21.44;37.92;100650.55;1777189;79;22708;-67
2021/05/11 06:56:56;;;;;;;4.97;1.90;;;;;;;21.37;37.94;100643.66;1875036;75;22701;-67
2021/05/11 06:59:32;;;;;;;5.60;2.10;;;;;;;21.15;38.46;100658.41;1873884;76;27642;-67
2021/05/11 07:02:08;;;;;;;5.75;2.42;;;;;;;21.11;39.13;100665.05;1777166;79;22692;-67
2021/05/11 07:04:49;;;;;;;5.97;1.70;;;;;;;21.13;39.24;100674.23;1852331;77;23218;-69
2021/05/11 07:11:23;;;;;;;2.83;1.52;;;;;;;21.12;39.14;100678.71;1852855;77;20878;-68
2021/05/11 07:13:46;;;;;;;4.15;1.90;;;;;;;21.16;39.44;100676.06;1847664;76;22619;-65
2021/05/11 07:16:22;;;;;;;5.22;1.40;;;;;;;21.09;39.25;100678.53;1874043;76;27896;-67
2021/05/11 07:19:05;;;;;;;4.50;2.08;;;;;;;21.14;39.68;100686.05;1846026;76;22651;-69
2021/05/11 07:21:47;;;;;;;9.00;1.70;;;;;;;21.14;40.09;100683.39;1890139;76;22613;-67
2021/05/11 07:24:27;;;;;;;10.25;2.40;;;;;;;21.07;40.43;100683.69;1890071;76;23184;-68
2021/05/11 07:32:26;;;;;;;3.87;1.37;;;;;;;20.98;40.85;100696.64;1847759;76;22625;-68
2021/05/11 07:35:04;;;;;;;3.83;1.80;;;;;;;20.83;41.11;100686.58;1847818;76;22629;-66
2021/05/11 07:37:39;;;;;;;4.50;1.60;;;;;;;20.43;41.96;100694.59;1847765;76;22718;-68
2021/05/11 07:40:22;;;;;;;2.65;1.75;;;;;;;20.45;42.02;100694.42;1845959;76;22714;-68
2021/05/11 07:42:57;;;;;;;4.78;1.70;;;;;;;20.28;42.33;100696.96;1816051;79;22678;-67
2021/05/11 08:17:21;;;;;;;5.75;1.95;;;;;;;18.93;46.85;100702.53;1847862;76;22658;-68
2021/05/11 08:20:18;;;;;;;6.93;2.43;;;;;;;18.82;47.19;100699.55;1832231;76;27744;-67
2021/05/11 08:28:32;;;;;;;4.17;1.82;;;;;;;18.68;47.88;100708.78;1847822;76;22696;-68
2021/05/11 08:31:08;;;;;;;5.85;2.60;;;;;;;18.57;48.24;100699.64;1847843;76;22679;-68
2021/05/11 08:33:50;;;;;;;8.58;2.33;;;;;;;18.44;48.56;100711.37;1845946;76;23253;-67
2021/05/11 08:36:27;;;;;;;7.55;2.60;;;;;;;18.36;49.05;100712.59;1847887;76;22668;-67
2021/05/11 08:39:05;;;;;;;5.12;3.02;;;;;;;18.27;48.97;100725.36;1890085;76;22546;-66
2021/05/11 08:41:47;;;;;;;10.90;3.22;;;;;;;18.19;49.55;100723.41;1818615;76;22724;-67
2021/05/11 08:47:23;;;;;;;4.37;2.40;;;;;;;17.98;50.35;100732.80;1860920;77;20918;-71
2021/05/11 08:50:01;;;;;;;5.28;2.00;;;;;;;17.89;50.60;100734.12;1847859;76;23258;-71
2021/05/11 09:27:46;;;;;;;5.90;3.33;;;;;;;16.98;54.90;100764.02;1846082;76;22665;-68
2021/05/11 09:30:21;;;;;;;3.50;3.20;;;;;;;16.89;55.08;100767.91;1832159;76;27723;-69
2021/05/11 10:48:38;;;;;;;2.70;0.82;;;;;;;16.08;58.10;100851.67;1874931;75;22701;-69
2021/05/11 10:51:26;;;;;;;3.90;1.05;;;;;;;16.18;57.70;100852.25;1846055;75;22741;-67
2021/05/11 10:54:08;;;;;;;8.58;0.93;;;;;;;16.24;56.70;100857.06;1890150;76;22699;-68
2021/05/11 10:56:47;;;;;;;0.98;0.68;;;;;;;16.25;56.72;100859.59;1847897;76;23210;-69
2021/05/11 11:02:04;;;;;;;0.40;0.30;;;;;;;16.47;55.30;100849.91;1777201;79;22744;-68
2021/05/11 11:04:47;;;;;;;3.90;0.35;;;;;;;16.65;54.45;100855.05;1852335;77;22697;-68
2021/05/11 11:07:47;;;;;;;1.25;0.55;;;;;;;17.03;54.41;100858.15;1877451;75;23274;-69
2021/05/11 11:10:40;;;;;;;1.40;0.70;;;;;;;17.54;53.63;100856.90;1787668;78;27898;-68
2021/05/11 11:13:16;;;;;;;1.02;0.20;;;;;;;18.15;51.87;100849.41;1890139;76;22601;-67
2021/05/11 11:15:52;;;;;;;0.47;0.35;;;;;;;18.73;50.75;100854.47;1890154;76;22628;-69
2021/05/11 11:18:30;;;;;;;0.57;0.20;;;;;;;19.22;49.41;100843.34;1847852;76;22651;-68
2021/05/11 11:23:55;;;;;;;2.60;0.57;;;;;;;19.89;47.13;100846.80;1890102;76;23093;-69
2021/05/11 11:26:42;;;;;;;1.52;0.98;;;;;;;19.94;46.11;100845.03;1890166;76;22613;-68
2021/05/11 11:29:15;;;;;;;0.65;0.20;;;;;;;19.81;45.97;100847.55;1847861;76;22655;-69
2021/05/11 11:31:57;;;;;;;2.17;0.53;;;;;;;19.47;46.31;100864.48;1852318;77;22685;-68
2021/05/11 11:34:40;;;;;;;2.08;0.13;;;;;;;19.02;47.07;100859.31;1846016;76;22710;-68
2021/05/11 11:37:24;;;;;;;1.00;0.10;;;;;;;18.72;47.13;100862.94;1890110;76;23142;-69
2021/05/11 11:40:11;;;;;;;2.98;0.23;;;;;;;18.50;47.20;100865.36;1890207;75;23154;-68
2021/05/11 11:42:54;;;;;;;3.50;0.20;;;;;;;18.42;47.15;100871.84;1890032;75;22538;-68
2021/05/11 11:45:30;;;;;;;4.12;0.20;;;;;;;18.40;46.88;100865.33;1847851;75;22635;-69
2021/05/11 11:48:08;;;;;;;1.65;0.20;;;;;;;18.43;46.11;100865.07;1832206;76;28235;-68
2021/05/11 11:50:48;;;;;;;2.83;0.40;;;;;;;18.49;46.19;100858.35;1847864;76;22623;-73
2021/05/11 11:53:31;;;;;;;4.85;0.88;;;;;;;18.55;45.80;100849.01;1848019;76;22655;-69
2021/05/11 11:59:04;;;;;;;3.65;0.40;;;;;;;18.54;43.10;100856.14;1874931;75;22608;-69
2021/05/11 12:01:40;;;;;;;1.37;0.23;;;;;;;18.53;44.00;100851.79;1852314;77;22706;-70
2021/05/11 12:04:19;;;;;;;3.40;0.30;;;;;;;18.52;43.96;100839.50;1852283;77;22665;-68
2021/05/11 12:07:09;;;;;;;6.92;0.50;;;;;;;18.61;44.52;100842.66;1846023;76;22745;-69
2021/05/11 12:09:47;;;;;;;1.72;0.25;;;;;;;18.66;43.07;100848.05;1847894;76;22698;-71
2021/05/11 12:12:30;;;;;;;6.70;0.45;;;;;;;18.68;42.56;100846.09;1890080;75;22573;-70
2021/05/11 12:15:21;;;;;;;6.12;0.35;;;;;;;18.68;41.11;100848.25;1847804;76;22733;-68
2021/05/11 12:18:13;;;;;;;0.82;0.20;;;;;;;18.68;41.47;100844.27;1777108;79;22767;-67
2021/05/11 12:20:46;;;;;;;0.70;0.08;;;;;;;18.80;40.84;100833.03;1777193;79;23295;-68
2021/05/11 12:23:23;;;;;;;4.12;1.27;;;;;;;18.93;40.84;100843.39;1868612;74;27709;-69
2021/05/11 12:26:07;;;;;;;5.67;0.42;;;;;;;18.99;40.29;100844.16;1847890;76;22748;-68
2021/05/11 12:28:43;;;;;;;0.57;0.10;;;;;;;18.99;40.00;100846.81;1847843;76;22695;-66
2021/05/11 12:31:20;;;;;;;1.80;0.27;;;;;;;18.92;38.24;100833.25;1836525;77;28342;-67
2021/05/11 12:33:56;;;;;;;2.42;0.20;;;;;;;18.92;38.00;100836.38;1800484;79;27819;-67
2021/05/11 12:36:32;;;;;;;1.95;0.10;;;;;;;18.99;38.21;100833.52;1847881;76;22650;-72
2021/05/11 12:42:15;;;;;;;3.08;0.20;;;;;;;18.87;38.49;100843.94;1847743;76;23281;-68
2021/05/11 12:45:06;;;;;;;0.88;0.28;;;;;;;18.62;38.57;100846.14;1846093;76;22671;-66
2021/05/11 12:48:00;;;;;;;0.20;0.20;;;;;;;18.41;38.63;100837.81;1852322;77;22689;-66
2021/05/11 12:50:40;;;;;;;1.98;0.20;;;;;;;18.23;39.25;100833.66;1847860;76;22647;-68
2021/05/11 12:57:04;;;;;;;1.00;0.20;;;;;;;17.92;38.53;100836.86;1845968;76;22678;-67
2021/05/11 13:03:06;;;;;;;1.45;0.10;;;;;;;17.75;39.18;100834.30;1882554;75;22754;-67
2021/05/11 13:33:14;;;;;;;2.58;0.40;;;;;;;17.18;39.61;100854.22;1890126;76;22542;-71
2021/05/11 13:35:46;;;;;;;2.75;0.15;;;;;;;17.11;39.71;100848.59;1890143;76;22653;-67
2021/05/11 13:38:23;;;;;;;3.87;0.13;;;;;;;17.05;40.60;100872.98;1847835;76;22800;-67
2021/05/11 13:41:00;;;;;;;2.08;0.20;;;;;;;16.97;40.91;100864.81;1847857;76;22649;-69
2021/05/11 13:43:36;;;;;;;4.87;0.60;;;;;;;16.90;41.22;100867.63;1832141;76;27699;-72
2021/05/11 13:46:12;;;;;;;1.52;0.15;;;;;;;16.88;42.90;100864.26;1847865;76;23199;-76
2021/05/11 13:48:54;;;;;;;0.47;0.10;;;;;;;16.92;41.65;100866.52;1846073;76;23233;-77
2021/05/11 13:51:37;;;;;;;1.40;0.30;;;;;;;16.98;41.75;100869.12;1852352;77;22685;-76
2021/05/11 13:54:15;;;;;;;0.72;0.20;;;;;;;17.03;41.24;100881.53;1847908;76;22808;-72
2021/05/11 13:57:00;;;;;;;2.20;0.23;;;;;;;17.09;41.38;100875.70;1847866;75;22784;-74
2021/05/11 14:02:44;;;;;;;11.30;0.65;;;;;;;17.05;43.13;100879.60;1847781;76;22659;-69
2021/05/11 14:05:16;;;;;;;4.87;0.50;;;;;;;17.01;44.48;100882.61;1847866;76;22642;-68
2021/05/11 14:07:53;;;;;;;3.87;0.50;;;;;;;16.97;45.45;100886.84;1852358;77;20150;-68
2021/05/11 14:10:36;;;;;;;2.30;1.00;;;;;;;16.92;43.20;100892.19;1876186;75;22674;-68
2021/05/11 14:13:12;;;;;;;2.65;0.62;;;;;;;16.89;43.06;100889.77;1890231;76;22664;-69
2021/05/11 14:15:49;;;;;;;6.20;1.12;;;;;;;16.84;43.70;100899.42;1873953;76;27664;-69
2021/05/11 14:18:31;;;;;;;8.75;0.95;;;;;;;16.83;43.88;100895.10;1890166;76;22575;-69
2021/05/11 14:21:07;;;;;;;5.30;0.72;;;;;;;16.81;43.24;100902.79;1890196;76;22613;-69
2021/05/11 14:23:52;;;;;;;6.17;0.88;;;;;;;16.70;42.81;100897.87;1846059;76;22639;-69
2021/05/11 14:26:27;;;;;;;2.72;0.98;;;;;;;16.56;42.59;100904.30;1847835;76;22639;-67
2021/05/11 14:29:03;;;;;;;2.83;0.53;;;;;;;16.49;42.95;100896.95;1847843;76;23230;-72
2021/05/11 14:31:45;;;;;;;2.83;0.33;;;;;;;16.41;43.68;100904.66;1846069;76;23289;-72
2021/05/11 14:34:21;;;;;;;6.90;0.90;;;;;;;16.36;43.60;100900.60;1777279;79;23311;-72
2021/05/11 14:37:17;;;;;;;4.40;0.77;;;;;;;16.30;43.15;100899.76;1858375;75;28241;-68
2021/05/11 14:39:59;;;;;;;3.15;0.60;;;;;;;16.30;43.60;100906.87;1846043;76;22674;-71
2021/05/11 14:42:36;;;;;;;4.78;1.40;;;;;;;16.24;44.04;100928.52;1847819;76;22647;-71
2021/05/11 14:45:13;;;;;;;3.33;0.75;;;;;;;16.12;43.72;100906.52;1890047;76;22522;-71
2021/05/11 14:47:49;;;;;;;8.38;1.00;;;;;;;16.03;43.45;100923.09;1868506;75;27621;-70
2021/05/11 14:50:44;;;;;;;2.92;0.90;;;;;;;15.98;42.52;100923.45;1884759;75;22872;-71
2021/05/11 14:53:20;;;;;;;3.40;1.15;;;;;;;15.89;42.39;100919.72;1890050;76;22597;-71
2021/05/11 14:55:56;;;;;;;3.58;0.88;;;;;;;15.79;43.80;100924.53;1847862;76;22698;-70
2021/05/11 14:58:38;;;;;;;2.20;0.70;;;;;;;15.72;45.02;100918.39;1846021;76;22792;-68
2021/05/11 15:01:14;;;;;;;5.37;1.85;;;;;;;15.70;45.38;100918.12;1832122;76;27726;-74
2021/05/11 15:03:50;;;;;;;4.08;0.90;;;;;;;15.70;44.59;100922.09;1847752;76;22725;-71
2021/05/11 15:06:33;;;;;;;1.75;0.80;;;;;;;15.68;41.95;100927.97;1846385;76;23300;-74
2021/05/11 15:09:09;;;;;;;1.07;0.85;;;;;;;15.58;41.48;100924.33;1848084;76;22662;-72
2021/05/11 15:11:45;;;;;;;0.95;0.68;;;;;;;15.45;41.83;100937.17;1848028;76;22785;-71
2021/05/11 15:14:21;;;;;;;3.23;1.10;;;;;;;15.34;41.35;100937.14;1868725;76;28246;-70
2021/05/11 15:19:58;;;;;;;5.55;0.60;;;;;;;15.22;41.47;100949.44;1845991;76;22754;-72
2021/05/11 15:22:40;;;;;;;3.17;0.70;;;;;;;15.15;41.46;100947.39;1846003;76;22658;-72
2021/05/11 15:25:17;;;;;;;3.12;0.90;;;;;;;15.03;41.99;100947.34;1835052;77;27926;-72
2021/05/11 15:27:54;;;;;;;3.95;0.70;;;;;;;15.01;42.02;100952.37;1847865;76;22647;-71
2021/05/11 15:30:30;;;;;;;2.15;0.85;;;;;;;14.96;41.61;100950.04;1847892;76;22696;-71
2021/05/11 15:33:09;;;;;;;2.77;0.77;;;;;;;14.87;41.47;100952.91;1832208;76;27714;-72
2021/05/11 15:35:50;;;;;;;2.02;1.02;;;;;;;14.80;41.76;100959.56;1846046;76;22717;-72
2021/05/11 15:38:29;;;;;;;3.60;0.80;;;;;;;14.79;42.08;100954.41;1890137;76;23089;-73
2021/05/11 15:41:04;;;;;;;2.08;0.80;;;;;;;14.74;42.15;100945.95;1890604;76;22554;-79
2021/05/11 15:43:40;;;;;;;0.93;0.50;;;;;;;14.65;41.84;100941.73;1847679;76;22810;-74
2021/05/11 15:46:17;;;;;;;5.42;1.05;;;;;;;14.55;42.31;100949.92;1852368;77;22673;-73
2021/05/11 15:48:55;;;;;;;2.35;1.00;;;;;;;14.48;42.54;100948.17;1762098;79;38264;-71
2021/05/11 15:51:37;;;;;;;0.80;0.50;;;;;;;14.45;42.23;100957.63;1890156;76;23071;-76
2021/05/11 15:54:18;;;;;;;3.65;0.60;;;;;;;14.38;42.15;100952.41;1775440;79;23342;-74
2021/05/11 15:56:54;;;;;;;2.92;0.60;;;;;;;14.30;42.21;100949.48;1777265;79;22834;-73
2021/05/11 15:59:30;;;;;;;1.10;0.35;;;;;;;14.24;42.48;100944.63;1859058;75;28131;-74
2021/05/11 16:02:06;;;;;;;0.45;0.45;;;;;;;14.22;42.65;100953.13;1852080;77;22729;-74
2021/05/11 16:04:42;;;;;;;1.80;0.53;;;;;;;14.19;42.84;100947.59;1847917;76;23222;-73
2021/05/11 16:07:24;;;;;;;0.88;0.60;;;;;;;14.13;42.97;100939.27;1845919;76;23078;-73
2021/05/11 16:10:07;;;;;;;1.80;0.50;;;;;;;14.06;42.88;100939.69;1852436;77;22792;-73
2021/05/11 16:12:43;;;;;;;2.50;0.80;;;;;;;14.02;43.22;100942.64;1847983;76;22658;-71
2021/05/11 16:15:25;;;;;;;2.02;0.50;;;;;;;13.97;43.29;100935.05;1889914;76;23149;-73
2021/05/11 16:18:03;;;;;;;3.75;0.70;;;;;;;13.95;43.52;100944.02;1852337;77;22689;-74
2021/05/11 16:20:38;;;;;;;4.55;1.30;;;;;;;13.93;43.92;100940.16;1844939;76;22081;-72
2021/05/11 16:23:14;;;;;;;4.58;0.60;;;;;;;13.93;44.37;100953.34;1890201;76;22554;-73
2021/05/11 16:25:50;;;;;;;3.33;0.82;;;;;;;13.92;44.44;100957.40;1847880;76;22642;-73
2021/05/11 16:28:32;;;;;;;2.08;0.47;;;;;;;13.88;44.27;100959.42;1846129;76;22749;-74
2021/05/11 16:31:14;;;;;;;1.77;1.40;;;;;;;13.83;44.54;100965.01;1890125;75;22715;-77
2021/05/11 16:33:51;;;;;;;3.00;1.45;;;;;;;13.78;44.23;100968.41;1868658;76;28260;-74
2021/05/11 16:36:27;;;;;;;2.15;1.75;;;;;;;13.77;44.04;100964.10;1847897;76;23213;-74
2021/05/11 16:39:03;;;;;;;11.10;2.58;;;;;;;13.75;44.23;100965.16;1776790;79;23343;-73
2021/05/11 16:41:39;;;;;;;1.20;1.10;;;;;;;13.70;44.58;100969.42;1832116;76;38515;-75
2021/05/11 16:44:15;;;;;;;2.10;1.00;;;;;;;13.68;44.74;100968.20;1832150;76;27961;-73